River Of Ponds, Canada
Current Conditions -  °F | °C
As of 8:00 PM on Saturday 25 Oct 2014 (Local Time) from CWDH Reporting Station
Clear Clear  
Wind Chill: 32°   Ceiling: Unl
Heat Index: 40°   Visibility: 9mi
Dew Point: 30°   Wind: 12mph
Humidity: 70%   Direction: 50°NE
Pressure: 29.63"   Gusts: 23mph
Location:  50.53°N, 57.38°W
Report Text: CWDH 252200Z AUTO 05010G20KT 9SM NSC 04/M01 A2963 RMK SLP034 PK WND 07021/// T00421009 70033 WSI/SWOB
Loading
Personal Weather Stations






























Interactive Weather Map
Tropical Storm Tracking
New forecast layout! Learn more

10-Day Weather Forecast

Advertisements
Track Severe Weather on mobile